Time;durP1;ratioP1;P1;durP2;ratioP2;P2;SDS_P1;SDS_P2;PMS_P1;PMS_P2;Temp;Humidity;BMP_temperature;BMP_pressure;BME280_temperature;BME280_humidity;BME280_pressure;Samples;Min_cycle;Max_cycle;Signal;HPM_P1;HPM_P2
2022/07/10 00:00:36;;;;;;;1.80;0.20;;;14.50;99.90;;;;;;5027370;28;20498;-74
2022/07/10 00:03:02;;;;;;;1.77;0.20;;;14.50;99.90;;;;;;5010030;28;20040;-73
2022/07/10 00:05:29;;;;;;;2.85;0.20;;;14.60;99.90;;;;;;5013964;28;20045;-73
2022/07/10 00:07:54;;;;;;;3.75;0.20;;;14.60;99.90;;;;;;5017582;28;20034;-74
2022/07/10 00:10:22;;;;;;;2.83;0.20;;;14.60;99.90;;;;;;5013133;28;20029;-74
2022/07/10 00:12:48;;;;;;;2.47;0.43;;;14.60;99.90;;;;;;5014173;28;20037;-74
2022/07/10 00:15:15;;;;;;;2.13;0.20;;;14.60;99.90;;;;;;5027551;28;20041;-74
2022/07/10 00:17:42;;;;;;;1.63;0.20;;;14.60;99.90;;;;;;5007083;28;20036;-73
2022/07/10 00:20:09;;;;;;;1.02;0.10;;;14.50;99.90;;;;;;5015423;28;20414;-74
2022/07/10 00:22:36;;;;;;;3.38;0.30;;;14.60;99.90;;;;;;5014633;28;20060;-76
2022/07/10 00:25:06;;;;;;;3.08;0.20;;;14.50;99.90;;;;;;4995319;28;20042;-74
2022/07/10 00:27:32;;;;;;;1.83;0.20;;;14.60;99.90;;;;;;5012282;28;20068;-74
2022/07/10 00:29:58;;;;;;;0.70;0.10;;;14.60;99.90;;;;;;5012068;28;20124;-73
2022/07/10 00:32:24;;;;;;;1.83;0.20;;;14.60;99.90;;;;;;4999408;28;20026;-73
2022/07/10 00:34:50;;;;;;;1.70;0.20;;;14.60;99.90;;;;;;5011464;28;20489;-73
2022/07/10 00:37:16;;;;;;;2.78;0.20;;;14.60;99.90;;;;;;5011578;28;20043;-73
2022/07/10 00:39:42;;;;;;;1.35;0.20;;;14.60;99.90;;;;;;5010718;28;20041;-74
2022/07/10 00:42:14;;;;;;;1.30;0.20;;;14.60;99.90;;;;;;5011503;28;20490;-74
2022/07/10 00:44:43;;;;;;;2.58;0.10;;;14.60;99.90;;;;;;5009715;28;20046;-74
2022/07/10 00:47:10;;;;;;;6.88;0.55;;;14.60;99.90;;;;;;5015482;28;20029;-73
2022/07/10 00:49:37;;;;;;;1.63;0.17;;;14.60;99.90;;;;;;5009601;28;20045;-74
2022/07/10 00:52:07;;;;;;;1.90;0.20;;;14.60;99.90;;;;;;5008453;28;20040;-74
2022/07/10 00:54:34;;;;;;;2.53;0.20;;;14.60;99.90;;;;;;5012662;28;20636;-75
2022/07/10 00:57:02;;;;;;;2.08;0.20;;;14.50;99.90;;;;;;5010676;28;20030;-73
2022/07/10 00:59:29;;;;;;;3.30;0.38;;;14.50;99.90;;;;;;5010023;28;20069;-74
2022/07/10 01:01:55;;;;;;;3.08;0.20;;;14.50;99.90;;;;;;5012826;28;20224;-74
2022/07/10 01:04:21;;;;;;;3.20;0.20;;;14.50;99.90;;;;;;5010864;28;20657;-73
2022/07/10 01:06:47;;;;;;;2.67;0.20;;;14.50;99.90;;;;;;4993618;28;20398;-74
2022/07/10 01:09:12;;;;;;;1.95;0.20;;;14.40;99.90;;;;;;5009770;28;20036;-74
2022/07/10 01:11:38;;;;;;;1.98;0.20;;;14.50;99.90;;;;;;5010262;28;20389;-78
2022/07/10 01:14:04;;;;;;;6.35;0.50;;;14.50;99.90;;;;;;5012632;28;20033;-74
2022/07/10 01:16:31;;;;;;;2.22;0.20;;;14.50;99.90;;;;;;4997100;28;20026;-73
2022/07/10 01:18:57;;;;;;;2.33;0.20;;;14.50;99.90;;;;;;5010169;28;20022;-73
2022/07/10 01:21:28;;;;;;;2.05;0.30;;;14.40;99.90;;;;;;5010132;28;20029;-73
2022/07/10 01:23:54;;;;;;;1.92;0.20;;;14.40;99.90;;;;;;5010546;28;20033;-73
2022/07/10 01:26:21;;;;;;;1.17;0.10;;;14.30;99.90;;;;;;5010085;28;20040;-74
2022/07/10 01:28:49;;;;;;;3.13;0.32;;;14.30;99.90;;;;;;5009180;28;20042;-73
2022/07/10 01:31:16;;;;;;;2.88;0.30;;;14.30;99.90;;;;;;5008831;28;20056;-75
2022/07/10 01:33:42;;;;;;;3.58;0.20;;;14.30;99.90;;;;;;5007910;28;20112;-73
2022/07/10 01:36:08;;;;;;;4.07;0.45;;;14.30;99.90;;;;;;5011153;28;20029;-75
2022/07/10 01:38:34;;;;;;;1.40;0.43;;;14.20;99.90;;;;;;5008323;28;20069;-74
2022/07/10 01:40:59;;;;;;;1.85;0.50;;;14.20;99.90;;;;;;4993091;28;20087;-73
2022/07/10 01:43:25;;;;;;;2.53;0.20;;;14.10;99.90;;;;;;5009633;28;20029;-73
2022/07/10 01:45:51;;;;;;;1.95;0.20;;;14.10;99.90;;;;;;5025070;28;20076;-74
2022/07/10 01:48:17;;;;;;;1.60;0.20;;;14.00;99.90;;;;;;5010201;28;20025;-73
2022/07/10 01:50:43;;;;;;;2.47;0.10;;;14.00;99.90;;;;;;5009802;28;20037;-74
2022/07/10 01:53:09;;;;;;;0.93;0.10;;;14.00;99.90;;;;;;5008142;28;20040;-75
2022/07/10 01:55:34;;;;;;;1.95;0.38;;;13.90;99.90;;;;;;4998309;28;20037;-74
2022/07/10 01:58:00;;;;;;;3.05;0.10;;;13.80;99.90;;;;;;5007303;28;20037;-74
2022/07/10 02:00:28;;;;;;;1.17;0.10;;;13.70;99.90;;;;;;5009600;28;20033;-74
2022/07/10 02:05:51;;;;;;;0.93;0.10;;;13.70;99.90;;;;;;4952600;28;20056;-73
2022/07/10 02:08:17;;;;;;;1.05;0.20;;;13.60;99.90;;;;;;4952739;28;20034;-73
2022/07/10 02:10:44;;;;;;;1.63;0.10;;;13.70;99.90;;;;;;4969206;28;20037;-73
2022/07/10 02:13:11;;;;;;;1.58;0.22;;;13.70;99.90;;;;;;4951727;28;20046;-73
2022/07/10 02:15:37;;;;;;;1.50;0.10;;;13.70;99.90;;;;;;4958204;28;20913;-73
2022/07/10 02:18:02;;;;;;;1.92;0.15;;;13.80;99.90;;;;;;4969090;28;20062;-74
2022/07/10 02:20:28;;;;;;;2.75;0.17;;;13.80;99.90;;;;;;4936349;28;20113;-74
2022/07/10 02:22:53;;;;;;;1.27;0.10;;;13.80;99.90;;;;;;4951774;28;20510;-74
2022/07/10 02:25:19;;;;;;;2.38;0.10;;;13.80;99.90;;;;;;4954263;28;20077;-73
2022/07/10 02:27:45;;;;;;;3.38;0.20;;;13.80;99.90;;;;;;4969869;28;20225;-74
2022/07/10 02:30:11;;;;;;;1.45;0.20;;;13.90;99.90;;;;;;4969175;28;20031;-73
2022/07/10 02:32:36;;;;;;;0.77;0.13;;;13.90;99.90;;;;;;4951774;28;20031;-73
2022/07/10 02:35:03;;;;;;;0.90;0.10;;;14.00;99.90;;;;;;4937837;28;20112;-74
2022/07/10 02:37:29;;;;;;;2.67;0.20;;;14.00;99.90;;;;;;4958283;28;20137;-74
2022/07/10 02:39:54;;;;;;;1.40;0.15;;;14.00;99.90;;;;;;4953770;28;20030;-73
2022/07/10 02:42:21;;;;;;;0.90;0.10;;;14.00;99.90;;;;;;5000854;28;20092;-74
2022/07/10 02:44:46;;;;;;;2.70;0.20;;;14.00;99.90;;;;;;5003859;28;20045;-75
2022/07/10 02:47:12;;;;;;;1.00;0.20;;;14.00;99.90;;;;;;5024412;28;20032;-75
2022/07/10 02:49:38;;;;;;;2.65;0.20;;;14.00;99.90;;;;;;5008856;28;20533;-74
2022/07/10 02:52:04;;;;;;;2.50;0.20;;;13.90;99.90;;;;;;4996662;28;20030;-73
2022/07/10 02:54:30;;;;;;;2.55;0.20;;;13.80;99.90;;;;;;5009268;28;20047;-73
2022/07/10 02:56:56;;;;;;;1.08;0.20;;;13.80;99.90;;;;;;4992227;28;20025;-74
2022/07/10 02:59:21;;;;;;;2.10;0.35;;;13.70;99.90;;;;;;5008601;28;20116;-74
2022/07/10 03:01:47;;;;;;;1.45;0.40;;;13.70;99.90;;;;;;5008754;28;20056;-73
2022/07/10 03:04:13;;;;;;;2.28;0.20;;;13.60;99.90;;;;;;5010049;28;20105;-74
2022/07/10 03:06:38;;;;;;;2.15;0.30;;;13.60;99.90;;;;;;4994530;28;20025;-73
2022/07/10 03:09:04;;;;;;;4.07;0.20;;;13.70;99.90;;;;;;5009145;28;20041;-73
2022/07/10 03:11:29;;;;;;;2.05;0.20;;;13.60;99.90;;;;;;4992020;28;20092;-73
2022/07/10 03:13:55;;;;;;;1.15;0.20;;;13.70;99.90;;;;;;5008507;28;20060;-73
2022/07/10 03:16:21;;;;;;;2.53;0.30;;;13.70;99.90;;;;;;5010266;28;22720;-74
2022/07/10 03:18:46;;;;;;;1.33;0.20;;;13.70;99.90;;;;;;5013631;28;20034;-74
2022/07/10 03:21:12;;;;;;;1.35;0.20;;;13.80;99.90;;;;;;5016988;28;20043;-74
2022/07/10 03:23:39;;;;;;;2.22;0.20;;;13.70;99.90;;;;;;5013285;28;20417;-74
2022/07/10 03:26:05;;;;;;;3.38;0.30;;;13.80;99.90;;;;;;5013248;28;20099;-73
2022/07/10 03:28:31;;;;;;;2.25;0.20;;;13.80;99.90;;;;;;5011869;28;20374;-74
2022/07/10 03:30:56;;;;;;;2.35;0.22;;;13.80;99.90;;;;;;5011694;28;20038;-74
2022/07/10 03:33:22;;;;;;;3.25;0.20;;;13.90;99.90;;;;;;5016887;28;20048;-73
2022/07/10 03:35:48;;;;;;;2.78;0.40;;;13.90;99.90;;;;;;5011713;28;20049;-74
2022/07/10 03:38:14;;;;;;;3.80;0.30;;;14.00;99.90;;;;;;5012989;28;20050;-73
2022/07/10 03:40:40;;;;;;;3.13;0.30;;;14.00;99.90;;;;;;5010495;28;20139;-74
2022/07/10 03:43:05;;;;;;;4.25;0.30;;;14.00;99.90;;;;;;5011931;28;20037;-73
2022/07/10 03:45:31;;;;;;;2.88;0.20;;;14.10;99.90;;;;;;4994088;28;20037;-74
2022/07/10 03:47:57;;;;;;;2.75;0.30;;;14.10;99.90;;;;;;4999528;28;20030;-73
2022/07/10 03:50:23;;;;;;;2.60;0.30;;;14.10;99.90;;;;;;5026503;28;20036;-73
2022/07/10 03:52:48;;;;;;;2.15;0.20;;;14.10;99.90;;;;;;4992418;28;20037;-73
2022/07/10 03:55:14;;;;;;;3.08;0.30;;;14.20;99.90;;;;;;5021771;28;20104;-73
2022/07/10 03:58:02;;;;;;;3.22;0.30;;;14.20;99.90;;;;;;5015966;28;20410;-73
2022/07/10 04:00:28;;;;;;;3.85;0.30;;;14.20;99.90;;;;;;4996407;28;20052;-73
2022/07/10 04:03:02;;;;;;;4.88;0.40;;;14.20;99.90;;;;;;5010582;28;20025;-73
2022/07/10 04:05:29;;;;;;;2.88;0.30;;;14.30;99.90;;;;;;5010969;28;20077;-75
2022/07/10 04:07:56;;;;;;;3.05;0.22;;;14.30;99.90;;;;;;4993057;28;20022;-73
2022/07/10 04:10:23;;;;;;;2.45;0.30;;;14.30;99.90;;;;;;5011558;28;20065;-73
2022/07/10 04:12:49;;;;;;;3.08;0.30;;;14.30;99.90;;;;;;5008790;28;20128;-74
2022/07/10 04:15:15;;;;;;;1.98;0.30;;;14.30;99.90;;;;;;5004174;28;20529;-73
2022/07/10 04:17:41;;;;;;;3.80;0.40;;;14.30;99.90;;;;;;5010274;28;20029;-74
2022/07/10 04:20:08;;;;;;;3.78;0.32;;;14.30;99.90;;;;;;5010385;28;20124;-74
2022/07/10 04:22:34;;;;;;;3.20;0.52;;;14.40;99.90;;;;;;5010209;28;20041;-73
2022/07/10 04:25:00;;;;;;;1.90;0.20;;;14.40;99.90;;;;;;5008928;28;20038;-74
2022/07/10 04:27:26;;;;;;;2.38;0.32;;;14.40;99.90;;;;;;5010686;28;20540;-73
2022/07/10 04:29:52;;;;;;;4.25;0.77;;;14.50;99.90;;;;;;5009485;28;20037;-73
2022/07/10 04:32:18;;;;;;;4.97;0.45;;;14.50;99.90;;;;;;5012120;28;20044;-74
2022/07/10 04:34:43;;;;;;;4.45;0.40;;;14.40;99.90;;;;;;5008754;28;20025;-74
2022/07/10 04:37:09;;;;;;;2.08;0.30;;;14.50;99.90;;;;;;5014008;28;20056;-74
2022/07/10 04:39:37;;;;;;;1.83;0.20;;;14.50;99.90;;;;;;4992776;28;20476;-73
2022/07/10 04:42:04;;;;;;;2.40;0.32;;;14.50;99.90;;;;;;5024359;28;20386;-74
2022/07/10 04:44:30;;;;;;;2.78;0.30;;;14.50;99.90;;;;;;5009736;28;20092;-73
2022/07/10 04:46:55;;;;;;;3.63;0.30;;;14.50;99.90;;;;;;5025503;28;20164;-73
2022/07/10 04:49:21;;;;;;;2.15;0.20;;;14.50;99.90;;;;;;5010775;28;20306;-73
2022/07/10 04:51:47;;;;;;;4.63;0.30;;;14.50;99.90;;;;;;5009672;28;20052;-73
2022/07/10 04:54:12;;;;;;;2.60;0.85;;;14.60;99.90;;;;;;5015024;28;20076;-73
2022/07/10 04:56:38;;;;;;;1.45;0.28;;;14.60;99.90;;;;;;5010551;28;20362;-73
2022/07/10 04:59:04;;;;;;;1.67;0.38;;;14.60;99.90;;;;;;5008791;28;20030;-72
2022/07/10 05:01:30;;;;;;;4.82;0.30;;;14.70;99.90;;;;;;5010183;28;20103;-74
2022/07/10 05:03:55;;;;;;;4.45;0.30;;;14.70;99.90;;;;;;5009524;28;20144;-73
2022/07/10 05:06:21;;;;;;;5.07;0.63;;;14.70;99.90;;;;;;5014159;28;20034;-74
2022/07/10 05:08:47;;;;;;;4.25;0.30;;;14.70;99.90;;;;;;5010498;28;20033;-73
2022/07/10 05:11:12;;;;;;;2.25;0.30;;;14.70;99.90;;;;;;5013558;28;20088;-73
2022/07/10 05:13:38;;;;;;;3.58;0.30;;;14.80;99.90;;;;;;4996659;28;20033;-73
2022/07/10 05:16:05;;;;;;;4.85;0.40;;;14.80;99.90;;;;;;5010288;28;20474;-73
2022/07/10 05:18:30;;;;;;;2.83;0.30;;;14.80;99.90;;;;;;5005124;28;20045;-74
2022/07/10 05:20:56;;;;;;;3.15;0.30;;;14.80;99.90;;;;;;5013664;28;20463;-74
2022/07/10 05:23:22;;;;;;;3.42;0.22;;;14.80;99.90;;;;;;4992459;28;20041;-74
2022/07/10 05:25:48;;;;;;;5.00;0.50;;;14.90;99.90;;;;;;4991559;28;20037;-74
2022/07/10 05:28:14;;;;;;;3.70;0.30;;;14.90;99.90;;;;;;5006522;28;20033;-74
2022/07/10 05:30:41;;;;;;;3.63;0.30;;;14.80;99.90;;;;;;5014235;28;20037;-73
2022/07/10 05:33:07;;;;;;;2.80;0.30;;;14.90;99.90;;;;;;4990997;28;20139;-74
2022/07/10 05:35:33;;;;;;;6.00;0.40;;;14.80;99.90;;;;;;4992052;28;20112;-74
2022/07/10 05:37:59;;;;;;;3.10;0.22;;;14.90;99.90;;;;;;5007204;28;20057;-75
2022/07/10 05:40:25;;;;;;;4.05;0.30;;;14.80;99.90;;;;;;4989477;28;20068;-74
2022/07/10 05:42:51;;;;;;;2.17;0.20;;;14.90;99.90;;;;;;4989170;28;20033;-74
2022/07/10 05:45:18;;;;;;;3.78;0.20;;;14.90;99.90;;;;;;5005420;28;20123;-74
2022/07/10 05:47:44;;;;;;;5.57;0.40;;;14.90;99.90;;;;;;5006666;28;20060;-73
2022/07/10 05:50:11;;;;;;;5.15;0.30;;;14.90;99.90;;;;;;5011126;28;20052;-74
2022/07/10 05:52:37;;;;;;;2.75;0.32;;;15.00;99.90;;;;;;5006728;28;20143;-74
2022/07/10 05:55:03;;;;;;;3.15;0.30;;;15.10;99.90;;;;;;5006866;28;20492;-73
2022/07/10 05:57:33;;;;;;;3.53;0.73;;;15.10;99.90;;;;;;4992143;28;20683;-74
2022/07/10 05:59:59;;;;;;;6.20;0.47;;;15.20;99.90;;;;;;5010804;28;20059;-73
2022/07/10 06:02:24;;;;;;;4.15;0.40;;;15.20;99.90;;;;;;5007571;28;20128;-74
2022/07/10 06:04:50;;;;;;;3.70;0.30;;;15.30;99.90;;;;;;4989608;28;20065;-74
2022/07/10 06:07:16;;;;;;;4.22;0.30;;;15.30;99.90;;;;;;5007371;28;20036;-74
2022/07/10 06:09:42;;;;;;;5.40;0.35;;;15.20;99.90;;;;;;4987412;28;20605;-74
2022/07/10 06:12:08;;;;;;;6.25;0.57;;;15.20;99.90;;;;;;5000735;28;20025;-74
2022/07/10 06:14:34;;;;;;;3.70;0.45;;;15.20;99.90;;;;;;5008492;28;20039;-74
2022/07/10 06:17:00;;;;;;;3.55;0.47;;;15.10;99.90;;;;;;5006219;28;20401;-74
2022/07/10 06:19:25;;;;;;;3.50;0.30;;;15.20;99.90;;;;;;5009877;28;20029;-74
2022/07/10 06:22:30;;;;;;;4.15;0.50;;;15.20;99.90;;;;;;5005697;28;20507;-74
2022/07/10 06:24:37;;;;;;;4.38;0.63;;;15.30;99.90;;;;;;5005681;28;20509;-74
2022/07/10 06:27:02;;;;;;;4.93;0.40;;;15.30;99.90;;;;;;5007909;28;20029;-74
2022/07/10 06:29:28;;;;;;;5.97;0.50;;;15.20;99.90;;;;;;4997391;28;20038;-73
2022/07/10 06:31:54;;;;;;;3.20;0.30;;;15.20;99.90;;;;;;5006472;28;20029;-74
2022/07/10 06:34:20;;;;;;;7.43;0.35;;;15.20;99.90;;;;;;5001867;28;20037;-74
2022/07/10 06:36:45;;;;;;;3.17;0.30;;;15.20;99.90;;;;;;5008112;28;20034;-73
2022/07/10 06:39:11;;;;;;;3.80;0.30;;;15.30;99.90;;;;;;4988284;28;20057;-75
2022/07/10 06:41:38;;;;;;;6.20;0.30;;;15.30;99.90;;;;;;4989211;28;20235;-74
2022/07/10 06:44:05;;;;;;;4.82;0.40;;;15.30;99.90;;;;;;5007883;28;20132;-74
2022/07/10 06:46:32;;;;;;;8.27;0.57;;;15.30;99.90;;;;;;5021395;28;20029;-74
2022/07/10 06:48:58;;;;;;;4.55;0.40;;;15.20;99.90;;;;;;5011240;28;20073;-74
2022/07/10 06:51:24;;;;;;;2.05;0.40;;;15.10;99.90;;;;;;5007311;28;20100;-75
2022/07/10 06:53:50;;;;;;;4.15;0.40;;;15.10;99.90;;;;;;5010717;28;20435;-75
2022/07/10 06:56:16;;;;;;;5.38;0.30;;;15.10;99.90;;;;;;5010042;28;20018;-74
2022/07/10 06:58:42;;;;;;;4.40;0.50;;;15.10;99.90;;;;;;5007359;28;20493;-75
2022/07/10 07:01:07;;;;;;;1.83;0.40;;;15.10;99.90;;;;;;5010783;28;20026;-74
2022/07/10 07:03:33;;;;;;;5.57;0.52;;;15.00;99.90;;;;;;4993540;28;20301;-74
2022/07/10 07:05:59;;;;;;;3.78;0.35;;;15.10;99.90;;;;;;5010016;28;20049;-73
2022/07/10 07:08:24;;;;;;;4.97;0.40;;;15.10;99.90;;;;;;5009644;28;20034;-74
2022/07/10 07:10:50;;;;;;;5.93;0.40;;;15.00;99.90;;;;;;5010510;28;20033;-74
2022/07/10 07:13:16;;;;;;;4.07;0.32;;;15.00;99.90;;;;;;5011778;28;20037;-73
2022/07/10 07:15:46;;;;;;;3.38;0.30;;;14.90;99.90;;;;;;5010450;28;20032;-72
2022/07/10 07:18:15;;;;;;;6.10;0.50;;;14.70;99.90;;;;;;5011118;28;21791;-73
2022/07/10 07:23:27;;;;;;;5.10;0.60;;;14.40;99.90;;;;;;5007247;28;20122;-73
2022/07/10 07:25:52;;;;;;;4.03;0.50;;;14.50;99.90;;;;;;5004750;28;20486;-73
2022/07/10 07:28:19;;;;;;;4.07;0.85;;;14.40;99.90;;;;;;5010151;28;20037;-73
2022/07/10 07:30:49;;;;;;;3.80;0.40;;;14.40;99.90;;;;;;5012380;28;20065;-73
2022/07/10 07:33:15;;;;;;;3.17;0.57;;;14.40;99.90;;;;;;4999186;28;20079;-74
2022/07/10 07:35:41;;;;;;;7.15;0.50;;;14.40;99.90;;;;;;5000241;28;20041;-74
2022/07/10 07:38:07;;;;;;;5.45;0.60;;;14.40;99.90;;;;;;4993149;28;20045;-74
2022/07/10 07:40:33;;;;;;;4.50;0.50;;;14.50;99.90;;;;;;5010827;28;20460;-74
2022/07/10 07:42:59;;;;;;;5.30;0.80;;;14.60;99.90;;;;;;5010151;28;20030;-74
2022/07/10 07:45:25;;;;;;;6.40;0.73;;;14.50;99.90;;;;;;5006259;28;20096;-73
2022/07/10 07:47:57;;;;;;;2.58;0.47;;;14.40;99.90;;;;;;5011115;28;20038;-73
2022/07/10 07:50:26;;;;;;;3.97;0.40;;;14.50;99.90;;;;;;5014869;28;20037;-74
2022/07/10 07:52:52;;;;;;;5.20;0.50;;;14.60;99.90;;;;;;5012742;28;20047;-74
2022/07/10 07:55:19;;;;;;;3.15;0.40;;;14.50;99.90;;;;;;5012399;28;20413;-74
2022/07/10 07:57:45;;;;;;;3.15;0.55;;;14.50;99.90;;;;;;5011423;28;20032;-73
2022/07/10 08:00:12;;;;;;;3.75;0.50;;;14.50;99.90;;;;;;5009643;28;20029;-74
2022/07/10 08:02:38;;;;;;;3.63;0.77;;;14.60;99.90;;;;;;5008106;28;20033;-74
2022/07/10 08:05:05;;;;;;;2.38;0.63;;;14.50;99.90;;;;;;5008646;28;20489;-73
2022/07/10 08:07:42;;;;;;;1.23;0.30;;;14.40;99.90;;;;;;5008796;28;20224;-74
2022/07/10 08:10:13;;;;;;;1.98;0.40;;;14.50;99.90;;;;;;5006453;28;22644;-74
2022/07/10 08:12:40;;;;;;;2.88;0.60;;;14.70;99.90;;;;;;5003703;28;20403;-74
2022/07/10 08:15:10;;;;;;;2.75;0.68;;;14.60;99.90;;;;;;5009800;28;20029;-74
2022/07/10 08:17:37;;;;;;;4.55;0.68;;;14.60;99.90;;;;;;4993140;28;20032;-73
2022/07/10 08:20:05;;;;;;;3.65;0.52;;;14.60;99.90;;;;;;4990388;28;20036;-74
2022/07/10 08:22:31;;;;;;;3.13;0.40;;;14.60;99.90;;;;;;4990966;28;20096;-74
2022/07/10 08:24:56;;;;;;;4.28;0.57;;;14.70;99.90;;;;;;5011768;28;20084;-74
2022/07/10 08:27:23;;;;;;;2.78;0.55;;;14.70;99.90;;;;;;5008092;28;20045;-75
2022/07/10 08:29:48;;;;;;;3.95;0.50;;;14.70;99.90;;;;;;5002345;28;20064;-74
2022/07/10 08:32:14;;;;;;;3.67;1.13;;;14.80;99.90;;;;;;4995707;28;20557;-74
2022/07/10 08:34:40;;;;;;;3.67;0.50;;;14.80;99.90;;;;;;5013630;28;20056;-74
2022/07/10 08:37:05;;;;;;;3.50;0.60;;;14.90;99.90;;;;;;5003147;28;20022;-75
2022/07/10 08:39:31;;;;;;;3.03;0.65;;;14.90;99.90;;;;;;5012210;28;20054;-75
2022/07/10 08:41:57;;;;;;;4.97;1.08;;;15.00;99.90;;;;;;5009176;28;20264;-74
2022/07/10 08:44:23;;;;;;;5.10;0.90;;;15.00;99.90;;;;;;5008720;28;20634;-74
2022/07/10 08:46:49;;;;;;;2.75;0.70;;;14.90;99.90;;;;;;4999496;28;20280;-75
2022/07/10 08:49:16;;;;;;;5.32;1.52;;;14.80;99.90;;;;;;5025944;28;20029;-75
2022/07/10 08:51:59;;;;;;;5.07;0.70;;;14.90;99.90;;;;;;5009848;28;20409;-75
2022/07/10 08:54:28;;;;;;;1.58;0.50;;;15.00;99.90;;;;;;5011263;28;20173;-75
2022/07/10 08:57:00;;;;;;;3.50;0.70;;;14.90;99.90;;;;;;5009035;28;20633;-75
2022/07/10 08:59:27;;;;;;;3.47;0.75;;;14.90;99.90;;;;;;5008153;28;20379;-75
2022/07/10 09:01:53;;;;;;;2.30;0.60;;;14.90;99.90;;;;;;4992401;28;20488;-75
2022/07/10 09:04:20;;;;;;;5.13;0.60;;;14.80;99.90;;;;;;5015214;28;20548;-75
2022/07/10 09:06:46;;;;;;;3.50;0.50;;;14.90;99.90;;;;;;5010178;28;20030;-75
2022/07/10 09:09:12;;;;;;;4.10;0.52;;;15.20;99.90;;;;;;5009548;28;20508;-75
2022/07/10 09:11:40;;;;;;;5.07;0.80;;;15.30;99.90;;;;;;5009358;28;20130;-74
2022/07/10 09:14:11;;;;;;;6.22;0.70;;;15.50;99.90;;;;;;5007746;28;20037;-74
2022/07/10 09:16:39;;;;;;;2.83;0.70;;;15.70;99.90;;;;;;5007659;28;20069;-74
2022/07/10 09:19:22;;;;;;;4.85;0.90;;;15.90;99.90;;;;;;5005819;28;20029;-74
2022/07/10 09:21:50;;;;;;;4.90;0.60;;;16.00;99.90;;;;;;5022451;28;20125;-75
2022/07/10 09:24:19;;;;;;;7.00;0.80;;;16.20;99.90;;;;;;4990515;28;20030;-75
2022/07/10 09:26:56;;;;;;;3.40;0.50;;;16.40;99.90;;;;;;5008978;28;20038;-75
2022/07/10 09:29:22;;;;;;;4.53;0.95;;;16.30;99.90;;;;;;5007750;28;20041;-74
2022/07/10 09:31:52;;;;;;;4.30;0.70;;;16.40;99.90;;;;;;5008323;28;20047;-75
2022/07/10 09:34:40;;;;;;;5.32;0.50;;;16.50;99.90;;;;;;5008141;28;20419;-74
2022/07/10 09:37:24;;;;;;;4.68;0.77;;;17.00;99.90;;;;;;5007537;28;20064;-74
2022/07/10 09:39:55;;;;;;;2.40;0.30;;;17.10;99.90;;;;;;5004938;28;20060;-74
2022/07/10 09:42:31;;;;;;;4.07;0.50;;;16.70;99.90;;;;;;5006218;28;20041;-75
2022/07/10 09:45:10;;;;;;;3.30;0.43;;;16.50;99.90;;;;;;5008823;28;20037;-74
2022/07/10 09:47:36;;;;;;;2.53;0.52;;;16.50;99.90;;;;;;4988807;28;20038;-74
2022/07/10 09:50:02;;;;;;;5.82;0.75;;;16.50;99.90;;;;;;5005694;28;20048;-74
2022/07/10 09:52:29;;;;;;;2.28;0.40;;;16.70;99.90;;;;;;5007032;28;20116;-74
2022/07/10 09:54:56;;;;;;;3.40;0.40;;;16.90;99.90;;;;;;5006778;28;20132;-74
2022/07/10 09:57:27;;;;;;;2.53;0.40;;;17.10;99.90;;;;;;4990844;28;20036;-75
2022/07/10 09:59:55;;;;;;;3.15;0.30;;;17.30;99.90;;;;;;5006916;28;20032;-74
2022/07/10 10:02:21;;;;;;;3.92;0.40;;;17.40;99.90;;;;;;5007035;28;20553;-74
2022/07/10 10:04:49;;;;;;;2.85;0.50;;;17.30;99.90;;;;;;4991860;28;20034;-74
2022/07/10 10:07:19;;;;;;;1.98;0.30;;;17.30;99.90;;;;;;5010117;28;20034;-74
2022/07/10 10:09:57;;;;;;;2.72;0.30;;;17.30;99.90;;;;;;5007234;28;20402;-75
2022/07/10 10:12:35;;;;;;;2.17;0.40;;;17.30;99.90;;;;;;5007714;28;20030;-75
2022/07/10 10:15:01;;;;;;;2.95;0.30;;;17.20;99.90;;;;;;5012719;28;20033;-74
2022/07/10 10:17:28;;;;;;;1.20;0.30;;;17.20;99.90;;;;;;4991567;28;20053;-75
2022/07/10 10:22:44;;;;;;;4.43;0.35;;;17.40;99.90;;;;;;5009024;28;20025;-74
2022/07/10 10:25:11;;;;;;;3.90;0.40;;;17.70;99.90;;;;;;4991745;28;20538;-75
2022/07/10 10:27:37;;;;;;;4.35;0.30;;;17.80;99.90;;;;;;5007502;28;20047;-74
2022/07/10 10:30:03;;;;;;;2.58;0.30;;;17.90;99.90;;;;;;4988264;28;20043;-73
2022/07/10 10:32:29;;;;;;;4.57;0.30;;;18.20;99.90;;;;;;5006786;28;20025;-74
2022/07/10 10:34:55;;;;;;;2.85;0.40;;;18.50;99.90;;;;;;5021700;28;20374;-74
2022/07/10 10:37:27;;;;;;;1.25;0.30;;;18.60;99.90;;;;;;5006062;28;20034;-73
2022/07/10 10:39:56;;;;;;;2.72;0.30;;;18.60;99.90;;;;;;5020977;28;20061;-74
2022/07/10 10:42:33;;;;;;;1.50;0.30;;;18.10;99.90;;;;;;5006033;28;20026;-74
2022/07/10 10:45:31;;;;;;;1.92;0.30;;;17.80;99.90;;;;;;5009594;28;20045;-74
2022/07/10 10:48:08;;;;;;;2.90;0.45;;;17.80;99.90;;;;;;5005596;28;20041;-74
2022/07/10 10:50:49;;;;;;;1.88;0.30;;;17.80;99.90;;;;;;5006313;28;20030;-74
2022/07/10 10:53:26;;;;;;;2.97;0.40;;;17.90;99.90;;;;;;4990829;28;20041;-73
2022/07/10 10:56:04;;;;;;;3.60;0.40;;;18.00;99.90;;;;;;5006069;28;20030;-74
2022/07/10 10:58:37;;;;;;;4.40;0.20;;;18.00;99.90;;;;;;5007793;28;20264;-73
2022/07/10 11:01:05;;;;;;;2.08;0.30;;;18.00;99.90;;;;;;5006216;28;20026;-74
2022/07/10 11:03:31;;;;;;;3.28;0.43;;;18.10;99.90;;;;;;5006767;28;20124;-74
2022/07/10 11:05:57;;;;;;;1.85;0.20;;;17.90;99.90;;;;;;5005516;28;20528;-74
2022/07/10 11:08:36;;;;;;;1.70;0.30;;;17.90;99.90;;;;;;5004567;28;20038;-74
2022/07/10 11:11:31;;;;;;;1.73;0.30;;;18.20;99.90;;;;;;5004710;28;20030;-74
2022/07/10 11:13:57;;;;;;;2.00;0.30;;;18.20;99.90;;;;;;5000350;28;20526;-74
2022/07/10 11:16:24;;;;;;;1.95;0.22;;;18.30;99.90;;;;;;5023570;28;20068;-74
2022/07/10 11:18:53;;;;;;;1.40;0.20;;;18.30;99.90;;;;;;5011798;28;20037;-74
2022/07/10 11:21:24;;;;;;;1.47;0.20;;;18.20;99.90;;;;;;5008953;28;20026;-74
2022/07/10 11:23:57;;;;;;;1.15;0.25;;;18.10;99.90;;;;;;5007453;28;20498;-74
2022/07/10 11:27:01;;;;;;;1.30;0.13;;;18.30;99.90;;;;;;4985485;28;20037;-74
2022/07/10 11:29:26;;;;;;;1.27;0.22;;;18.50;99.90;;;;;;5008097;28;20120;-74
2022/07/10 11:31:53;;;;;;;0.80;0.20;;;18.80;99.90;;;;;;5008513;28;20541;-74
2022/07/10 11:34:21;;;;;;;1.60;0.22;;;19.70;99.90;;;;;;5007979;28;20065;-74
2022/07/10 11:36:47;;;;;;;0.90;0.20;;;20.10;99.90;;;;;;5007089;28;20029;-74
2022/07/10 11:39:14;;;;;;;1.58;0.20;;;20.30;99.90;;;;;;5011910;28;20049;-74
2022/07/10 11:41:44;;;;;;;1.20;0.20;;;19.80;99.90;;;;;;4992494;28;20030;-74
2022/07/10 11:44:20;;;;;;;0.75;0.20;;;19.90;99.90;;;;;;4993221;28;20155;-74
2022/07/10 11:46:48;;;;;;;0.73;0.20;;;19.80;99.90;;;;;;5010291;28;20045;-74
2022/07/10 11:49:15;;;;;;;2.22;0.30;;;19.80;99.90;;;;;;5007455;28;20052;-74
2022/07/10 11:51:41;;;;;;;1.35;0.30;;;19.60;99.90;;;;;;5007621;28;20056;-74
2022/07/10 11:54:13;;;;;;;1.02;0.20;;;20.00;99.90;;;;;;5009011;28;20037;-74
2022/07/10 11:56:47;;;;;;;1.00;0.30;;;19.60;99.90;;;;;;5009271;28;20030;-75
2022/07/10 11:59:13;;;;;;;1.23;0.30;;;19.40;99.90;;;;;;5008785;28;20060;-74
2022/07/10 12:01:46;;;;;;;2.08;0.20;;;19.20;99.90;;;;;;5007483;28;20044;-74
2022/07/10 12:04:13;;;;;;;1.48;0.20;;;19.00;99.90;;;;;;5008618;28;20083;-74
2022/07/10 12:06:41;;;;;;;2.80;0.20;;;18.90;99.90;;;;;;5010317;28;20030;-74
2022/07/10 12:09:14;;;;;;;1.67;0.20;;;19.10;99.90;;;;;;5009589;28;20100;-74
2022/07/10 12:11:42;;;;;;;1.27;0.20;;;19.50;99.90;;;;;;4997215;28;20032;-74
2022/07/10 12:14:20;;;;;;;2.22;0.20;;;19.30;99.90;;;;;;5008039;28;20038;-76
2022/07/10 12:16:53;;;;;;;1.92;0.20;;;19.10;99.90;;;;;;5010511;28;20115;-75
2022/07/10 12:19:23;;;;;;;2.80;0.28;;;18.90;99.90;;;;;;5006758;28;20058;-75
2022/07/10 12:21:49;;;;;;;2.90;0.30;;;18.80;99.90;;;;;;5009204;28;20084;-75
2022/07/10 12:24:19;;;;;;;1.77;0.22;;;18.80;99.90;;;;;;5007856;28;20137;-74
2022/07/10 12:26:46;;;;;;;3.10;0.20;;;18.70;99.90;;;;;;5010504;28;20053;-75
2022/07/10 12:29:24;;;;;;;1.10;0.30;;;18.60;99.90;;;;;;5024505;28;20037;-74
2022/07/10 12:31:52;;;;;;;1.73;0.32;;;18.40;99.90;;;;;;5009239;28;20447;-74
2022/07/10 12:34:18;;;;;;;2.08;0.30;;;18.50;99.90;;;;;;5010538;28;20037;-75
2022/07/10 12:36:51;;;;;;;1.42;0.20;;;18.70;99.90;;;;;;4993379;28;20045;-78
2022/07/10 12:39:23;;;;;;;1.02;0.20;;;18.80;99.90;;;;;;5009714;28;20112;-76
2022/07/10 12:42:05;;;;;;;1.85;0.20;;;18.90;99.90;;;;;;5009076;28;20502;-73
2022/07/10 12:44:35;;;;;;;0.85;0.25;;;19.10;99.90;;;;;;5005021;28;20117;-75
2022/07/10 12:47:02;;;;;;;2.88;0.30;;;18.80;99.90;;;;;;5010955;28;20036;-74
2022/07/10 12:49:28;;;;;;;0.77;0.25;;;18.90;99.90;;;;;;4992315;28;20034;-74
2022/07/10 12:51:54;;;;;;;1.67;0.20;;;19.10;99.90;;;;;;4995049;28;20736;-75
2022/07/10 12:54:38;;;;;;;1.48;0.20;;;19.40;99.90;;;;;;5003768;28;20461;-74
2022/07/10 12:57:05;;;;;;;1.42;0.20;;;19.10;99.90;;;;;;5008623;28;20494;-73
2022/07/10 12:59:36;;;;;;;0.90;0.20;;;19.10;99.90;;;;;;5008262;28;20604;-75